createdAt,value
2019-01-04T00:02:25.440Z,1.75
2019-01-04T00:04:57.470Z,1.78
2019-01-04T00:07:29.465Z,1.77
2019-01-04T00:10:01.605Z,1.83
2019-01-04T00:12:33.495Z,1.83
2019-01-04T00:15:08.308Z,1.80
2019-01-04T00:17:40.330Z,1.80
2019-01-04T00:20:12.319Z,1.61
2019-01-04T00:22:44.339Z,1.44
2019-01-04T00:25:16.196Z,1.47
2019-01-04T00:27:48.105Z,1.45
2019-01-04T00:30:22.681Z,1.38
2019-01-04T00:32:54.907Z,1.34
2019-01-04T00:35:35.571Z,1.39
2019-01-04T00:38:07.501Z,1.34
2019-01-04T00:40:39.395Z,1.33
2019-01-04T00:43:11.518Z,1.36
2019-01-04T00:45:43.354Z,1.37
2019-01-04T00:48:15.246Z,1.36
2019-01-04T00:50:47.146Z,1.32
2019-01-04T00:53:18.981Z,1.33
2019-01-04T00:56:26.237Z,1.27
2019-01-04T00:59:26.887Z,1.11
2019-01-04T01:02:40.747Z,1.01
2019-01-04T01:05:47.914Z,0.87
2019-01-04T01:09:02.669Z,0.89
2019-01-04T01:12:11.529Z,0.88
2019-01-04T01:15:27.886Z,0.88
2019-01-04T01:18:32.437Z,0.91
2019-01-04T01:21:45.593Z,0.88
2019-01-04T01:24:58.659Z,0.86
2019-01-04T01:28:09.369Z,0.90
2019-01-04T01:31:10.324Z,0.98
2019-01-04T01:34:23.020Z,1.02
2019-01-04T01:37:41.888Z,0.98
2019-01-04T01:40:56.201Z,0.98
2019-01-04T01:44:13.805Z,0.81
2019-01-04T01:46:51.253Z,0.51
2019-01-04T01:50:15.218Z,0.47
2019-01-04T01:52:49.313Z,0.47
2019-01-04T01:55:21.236Z,0.41
2019-01-04T01:57:53.165Z,0.33
2019-01-04T02:00:25.081Z,0.33
2019-01-04T02:02:56.981Z,0.39
2019-01-04T02:05:29.278Z,0.41
2019-01-04T02:08:01.181Z,0.43
2019-01-04T02:10:33.065Z,0.53
2019-01-04T02:13:04.971Z,0.52
2019-01-04T02:15:36.825Z,0.58
2019-01-04T02:18:08.750Z,0.47
2019-01-04T02:20:40.677Z,0.41
2019-01-04T02:23:13.860Z,0.55
2019-01-04T02:25:45.828Z,0.62
2019-01-04T02:28:20.267Z,0.67
2019-01-04T02:30:52.483Z,0.67
2019-01-04T02:33:24.503Z,0.71
2019-01-04T02:35:56.924Z,0.72
2019-01-04T02:38:28.771Z,0.74
2019-01-04T02:41:01.300Z,0.77
2019-01-04T02:43:33.280Z,0.70
2019-01-04T02:46:05.169Z,0.63
2019-01-04T02:48:38.504Z,0.72
2019-01-04T02:51:10.387Z,0.85
2019-01-04T02:53:42.295Z,0.85
2019-01-04T02:56:14.148Z,0.85
2019-01-04T02:58:46.031Z,0.85
2019-01-04T03:01:18.014Z,0.85
2019-01-04T03:03:49.895Z,0.86
2019-01-04T03:06:21.760Z,0.79
2019-01-04T03:08:53.691Z,0.79
2019-01-04T03:11:26.731Z,0.85
2019-01-04T03:13:58.592Z,0.84
2019-01-04T03:16:30.528Z,0.75
2019-01-04T03:19:02.414Z,0.83
2019-01-04T03:21:34.313Z,0.65
2019-01-04T03:24:06.226Z,0.50
2019-01-04T03:26:38.102Z,0.36
2019-01-04T03:29:09.992Z,0.26
2019-01-04T03:31:42.415Z,0.21
2019-01-04T03:34:14.331Z,0.28
2019-01-04T03:36:46.208Z,0.32
2019-01-04T03:39:18.157Z,0.38
2019-01-04T03:41:50.069Z,0.43
2019-01-04T03:44:21.982Z,0.43
2019-01-04T03:46:53.937Z,0.41
2019-01-04T03:49:25.805Z,0.42
2019-01-04T03:51:59.255Z,0.38
2019-01-04T03:54:31.140Z,0.44
2019-01-04T03:57:03.018Z,0.42
2019-01-04T03:59:34.896Z,0.45
2019-01-04T04:02:07.439Z,0.47
2019-01-04T04:04:39.405Z,0.48
2019-01-04T04:07:11.345Z,0.52
2019-01-04T04:09:44.814Z,0.41
2019-01-04T04:12:16.701Z,0.36
2019-01-04T04:14:50.295Z,0.42
2019-01-04T04:17:22.224Z,0.24
2019-01-04T04:19:54.054Z,0.06
2019-01-04T04:22:25.922Z,0.06
2019-01-04T04:24:57.786Z,0.04
2019-01-04T04:27:29.682Z,0.08
2019-01-04T04:30:01.556Z,0.08
2019-01-04T04:32:33.799Z,0.11
2019-01-04T04:35:05.878Z,0.11
2019-01-04T04:37:37.752Z,0.05
2019-01-04T04:40:10.148Z,0.00
2019-01-04T04:42:42.033Z,-0.06
2019-01-04T04:45:13.888Z,0.00
2019-01-04T04:47:45.808Z,0.00
2019-01-04T04:50:17.642Z,0.02
2019-01-04T04:52:49.523Z,0.02
2019-01-04T04:55:26.026Z,-0.06
2019-01-04T04:57:57.880Z,-0.12
2019-01-04T05:00:29.856Z,-0.25
2019-01-04T05:03:01.738Z,-0.37
2019-01-04T05:05:33.608Z,-0.37
2019-01-04T05:08:05.510Z,-0.35
2019-01-04T05:10:37.671Z,-0.35
2019-01-04T05:13:10.117Z,-0.29
2019-01-04T05:15:43.616Z,-0.16
2019-01-04T05:18:16.169Z,-0.12
2019-01-04T05:20:48.005Z,-0.07
2019-01-04T05:23:19.993Z,-0.09
2019-01-04T05:25:52.024Z,-0.15
2019-01-04T05:28:23.910Z,-0.05
2019-01-04T05:30:56.543Z,-0.05
2019-01-04T05:33:28.745Z,-0.05
2019-01-04T05:36:00.657Z,-0.09
2019-01-04T05:38:32.569Z,-0.09
2019-01-04T05:41:04.658Z,-0.24
2019-01-04T05:43:36.611Z,-0.24
2019-01-04T05:46:08.534Z,-0.10
2019-01-04T05:48:40.424Z,-0.16
2019-01-04T05:51:12.296Z,-0.16
2019-01-04T05:53:47.202Z,-0.14
2019-01-04T05:56:19.259Z,-0.22
2019-01-04T05:58:51.112Z,-0.25
2019-01-04T06:01:23.040Z,-0.23
2019-01-04T06:03:54.885Z,-0.21
2019-01-04T06:06:28.441Z,-0.29
2019-01-04T06:09:00.300Z,-0.25
2019-01-04T06:11:32.483Z,-0.16
2019-01-04T06:14:04.339Z,-0.08
2019-01-04T06:16:36.568Z,-0.05
2019-01-04T06:19:08.494Z,-0.04
2019-01-04T06:21:40.345Z,-0.19
2019-01-04T06:24:12.273Z,-0.32
2019-01-04T06:26:44.361Z,-0.32
2019-01-04T06:29:16.253Z,-0.34
2019-01-04T06:31:50.181Z,-0.40
2019-01-04T06:34:22.099Z,-0.39
2019-01-04T06:36:54.009Z,-0.50
2019-01-04T06:39:25.909Z,-0.55
2019-01-04T06:41:57.939Z,-0.63
2019-01-04T06:44:29.842Z,-0.67
2019-01-04T06:47:21.570Z,-0.64
2019-01-04T06:49:53.656Z,-0.64
2019-01-04T06:52:25.771Z,-0.64
2019-01-04T06:55:41.821Z,-0.57
2019-01-04T06:58:13.703Z,-0.60
2019-01-04T07:00:45.604Z,-0.57
2019-01-04T07:03:19.097Z,-0.58
2019-01-04T07:05:50.990Z,-0.52
2019-01-04T07:08:22.880Z,-0.51
2019-01-04T07:10:54.793Z,-0.57
2019-01-04T07:13:26.830Z,-0.55
2019-01-04T07:16:01.943Z,-0.60
2019-01-04T07:18:34.026Z,-0.59
2019-01-04T07:21:06.808Z,-0.58
2019-01-04T07:23:38.694Z,-0.54
2019-01-04T07:26:10.702Z,-0.47
2019-01-04T07:28:46.187Z,-0.52
2019-01-04T07:31:18.141Z,-0.55
2019-01-04T07:33:50.213Z,-0.65
2019-01-04T07:36:22.200Z,-0.72
2019-01-04T07:38:54.222Z,-0.78
2019-01-04T07:41:29.293Z,-0.78
2019-01-04T07:44:01.475Z,-0.76
2019-01-04T07:46:33.384Z,-0.74
2019-01-04T07:49:05.240Z,-0.68
2019-01-04T07:51:37.189Z,-0.65
2019-01-04T07:54:11.930Z,-0.67
2019-01-04T07:56:43.831Z,-0.63
2019-01-04T07:59:16.702Z,-0.58
2019-01-04T08:01:48.590Z,-0.56
2019-01-04T08:04:20.498Z,-0.52
2019-01-04T08:06:52.478Z,-0.47
2019-01-04T08:09:24.507Z,-0.48
2019-01-04T08:11:57.972Z,-0.44
2019-01-04T08:14:32.404Z,-0.50
2019-01-04T08:17:04.906Z,-0.45
2019-01-04T08:19:36.922Z,-0.42
2019-01-04T08:22:08.765Z,-0.38
2019-01-04T08:24:40.644Z,-0.37
2019-01-04T08:27:14.119Z,-0.36
2019-01-04T08:29:46.086Z,-0.36
2019-01-04T08:32:17.991Z,-0.33
2019-01-04T08:34:49.908Z,-0.28
2019-01-04T08:37:21.924Z,-0.28
2019-01-04T08:39:53.991Z,-0.29
2019-01-04T08:42:25.890Z,-0.25
2019-01-04T08:44:57.782Z,-0.22
2019-01-04T08:47:29.684Z,-0.09
2019-01-04T08:50:01.531Z,0.10
2019-01-04T08:52:33.538Z,0.10
2019-01-04T08:55:05.879Z,0.33
2019-01-04T08:57:37.850Z,0.33
2019-01-04T09:00:12.402Z,0.46
2019-01-04T09:02:44.299Z,0.59
2019-01-04T09:05:21.263Z,0.63
2019-01-04T09:07:53.141Z,0.78
2019-01-04T09:10:24.988Z,0.96
2019-01-04T09:12:56.916Z,1.09
2019-01-04T09:15:28.802Z,1.19
2019-01-04T09:18:00.782Z,1.34
2019-01-04T09:20:34.658Z,1.52
2019-01-04T09:23:06.549Z,1.62
2019-01-04T09:25:40.338Z,1.95
2019-01-04T09:28:17.895Z,2.65
2019-01-04T09:30:47.545Z,3.97
2019-01-04T09:33:19.446Z,5.49
2019-01-04T09:35:51.322Z,7.31
2019-01-04T09:38:23.191Z,9.03
2019-01-04T09:41:27.631Z,10.71
2019-01-04T09:44:01.294Z,11.07
2019-01-04T09:46:33.232Z,12.77
2019-01-04T09:49:06.512Z,14.04
2019-01-04T09:51:42.193Z,13.70
2019-01-04T09:54:16.020Z,14.59
2019-01-04T09:56:48.374Z,14.40
2019-01-04T09:59:20.327Z,15.10
2019-01-04T10:01:52.303Z,14.33
2019-01-04T10:04:24.145Z,16.23
2019-01-04T10:06:56.035Z,17.05
2019-01-04T10:09:29.544Z,18.61
2019-01-04T10:12:01.703Z,18.68
2019-01-04T10:14:33.637Z,19.95
2019-01-04T10:17:05.564Z,20.89
2019-01-04T10:19:37.487Z,19.14
2019-01-04T10:22:10.103Z,19.36
2019-01-04T10:24:42.046Z,18.69
2019-01-04T10:27:13.991Z,19.20
2019-01-04T10:29:45.888Z,20.93
2019-01-04T10:32:17.779Z,23.29
2019-01-04T10:34:49.698Z,23.05
2019-01-04T10:37:21.564Z,23.07
2019-01-04T10:39:53.475Z,23.24
2019-01-04T10:42:25.386Z,21.34
2019-01-04T10:44:57.309Z,22.63
2019-01-04T10:47:29.197Z,22.82
2019-01-04T10:50:01.477Z,20.33
2019-01-04T10:52:33.365Z,21.48
2019-01-04T10:55:05.951Z,21.03
2019-01-04T10:57:37.872Z,22.24
2019-01-04T11:00:10.894Z,21.81
2019-01-04T11:02:42.801Z,23.33
2019-01-04T11:05:17.906Z,22.22
2019-01-04T11:07:50.965Z,22.64
2019-01-04T11:10:22.941Z,22.19
2019-01-04T11:12:57.678Z,22.19
2019-01-04T11:15:33.707Z,21.61
2019-01-04T11:18:11.592Z,23.37
2019-01-04T11:20:50.083Z,22.48
2019-01-04T11:24:03.975Z,22.41
2019-01-04T11:27:09.242Z,23.89
2019-01-04T11:30:18.990Z,23.58
2019-01-04T11:33:43.912Z,23.46
2019-01-04T11:37:05.683Z,23.57
2019-01-04T11:40:21.112Z,25.25
2019-01-04T11:43:22.988Z,25.84
2019-01-04T11:46:22.392Z,25.29
2019-01-04T11:49:21.879Z,24.76
2019-01-04T11:52:08.439Z,25.29
2019-01-04T11:54:41.500Z,24.78
2019-01-04T11:57:13.559Z,25.38
2019-01-04T11:59:45.437Z,25.49
2019-01-04T12:02:17.401Z,25.15
2019-01-04T12:04:50.210Z,24.99
2019-01-04T12:07:22.069Z,25.13
2019-01-04T12:09:57.099Z,25.77
2019-01-04T12:12:28.937Z,26.07
2019-01-04T12:15:00.886Z,26.61
2019-01-04T12:17:32.749Z,26.36
2019-01-04T12:20:07.982Z,26.86
2019-01-04T12:22:41.689Z,24.97
2019-01-04T12:25:15.984Z,25.64
2019-01-04T12:27:47.927Z,25.37
2019-01-04T12:30:19.986Z,26.21
2019-01-04T12:32:51.945Z,27.51
2019-01-04T12:35:24.812Z,27.69
2019-01-04T12:37:56.770Z,27.40
2019-01-04T12:40:29.721Z,27.14
2019-01-04T12:43:02.980Z,27.32
2019-01-04T12:45:36.175Z,25.76
2019-01-04T12:48:08.023Z,27.40
2019-01-04T12:50:39.957Z,27.85
2019-01-04T12:53:11.824Z,26.80
2019-01-04T12:55:43.753Z,26.75
2019-01-04T12:58:17.252Z,27.04
2019-01-04T13:00:49.260Z,26.75
2019-01-04T13:03:21.186Z,27.82
2019-01-04T13:05:55.117Z,28.40
2019-01-04T13:08:27.017Z,27.68
2019-01-04T13:10:59.238Z,28.53
2019-01-04T13:13:31.138Z,28.52
2019-01-04T13:16:03.022Z,26.01
2019-01-04T13:18:35.035Z,26.31
2019-01-04T13:21:08.538Z,25.71
2019-01-04T13:23:43.013Z,24.34
2019-01-04T13:26:15.020Z,24.18
2019-01-04T13:28:46.980Z,21.75
2019-01-04T13:31:18.900Z,20.11
2019-01-04T13:33:50.810Z,18.36
2019-01-04T13:36:22.691Z,17.25
2019-01-04T13:38:54.656Z,16.22
2019-01-04T13:41:26.893Z,15.55
2019-01-04T13:43:58.795Z,15.45
2019-01-04T13:46:30.647Z,14.84
2019-01-04T13:49:02.587Z,14.74
2019-01-04T13:51:34.423Z,14.52
2019-01-04T13:54:07.399Z,14.36
2019-01-04T13:56:41.060Z,14.27
2019-01-04T13:59:12.934Z,14.45
2019-01-04T14:01:44.854Z,14.37
2019-01-04T14:04:17.630Z,14.35
2019-01-04T14:06:49.491Z,14.18
2019-01-04T14:09:21.404Z,14.22
2019-01-04T14:11:53.358Z,14.13
2019-01-04T14:14:25.197Z,14.27
2019-01-04T14:16:57.066Z,14.15
2019-01-04T14:19:28.902Z,14.18
2019-01-04T14:22:00.847Z,14.10
2019-01-04T14:24:32.761Z,14.13
2019-01-04T14:27:04.663Z,14.17
2019-01-04T14:29:36.535Z,14.07
2019-01-04T14:32:08.400Z,14.06
2019-01-04T14:34:40.238Z,14.14
2019-01-04T14:37:12.596Z,14.00
2019-01-04T14:39:44.432Z,13.99
2019-01-04T14:42:16.470Z,14.02
2019-01-04T14:44:48.315Z,13.99
2019-01-04T14:47:20.251Z,14.03
2019-01-04T14:49:52.167Z,14.07
2019-01-04T14:52:24.123Z,13.93
2019-01-04T14:54:56.037Z,13.92
2019-01-04T14:57:29.004Z,13.83
2019-01-04T15:00:06.871Z,13.76
2019-01-04T15:02:38.949Z,13.76
2019-01-04T15:05:10.888Z,13.92
2019-01-04T15:07:42.777Z,13.97
2019-01-04T15:10:14.621Z,13.97
2019-01-04T15:12:46.500Z,13.79
2019-01-04T15:15:18.788Z,13.61
2019-01-04T15:17:50.785Z,13.51
2019-01-04T15:20:26.008Z,13.47
2019-01-04T15:22:59.835Z,13.44
2019-01-04T15:25:31.717Z,13.52
2019-01-04T15:28:03.591Z,13.52
2019-01-04T15:30:35.459Z,13.53
2019-01-04T15:33:09.068Z,13.58
2019-01-04T15:35:41.119Z,13.61
2019-01-04T15:38:13.377Z,13.58
2019-01-04T15:40:45.838Z,13.47
2019-01-04T15:43:17.733Z,13.31
2019-01-04T15:45:49.575Z,13.41
2019-01-04T15:48:21.452Z,13.30
2019-01-04T15:50:53.457Z,13.18
2019-01-04T15:53:28.354Z,13.18
2019-01-04T15:56:00.285Z,13.03
2019-01-04T15:58:32.136Z,12.85
2019-01-04T16:01:22.674Z,12.76
2019-01-04T16:04:13.590Z,12.75
2019-01-04T16:07:04.444Z,12.61
2019-01-04T16:09:55.486Z,12.74
2019-01-04T16:12:45.952Z,12.67
2019-01-04T16:15:37.938Z,12.67
2019-01-04T16:18:31.192Z,12.61
2019-01-04T16:21:22.131Z,12.50
2019-01-04T16:24:13.151Z,12.24
2019-01-04T16:27:05.164Z,12.04
2019-01-04T16:29:56.221Z,11.90
2019-01-04T16:32:46.566Z,11.82
2019-01-04T16:35:37.166Z,11.72
2019-01-04T16:38:27.870Z,11.63
2019-01-04T16:41:18.861Z,11.63
2019-01-04T16:44:08.795Z,11.51
2019-01-04T16:46:59.434Z,11.21
2019-01-04T16:49:49.931Z,11.17
2019-01-04T16:52:40.925Z,10.97
2019-01-04T16:55:31.691Z,10.81
2019-01-04T16:58:22.477Z,10.75
2019-01-04T17:01:14.266Z,10.51
2019-01-04T17:04:06.282Z,10.32
2019-01-04T17:06:57.231Z,10.05
2019-01-04T17:09:48.113Z,9.87
2019-01-04T17:12:39.021Z,9.66
2019-01-04T17:15:30.446Z,9.54
2019-01-04T17:18:26.118Z,9.30
2019-01-04T17:21:21.090Z,9.08
2019-01-04T17:24:09.003Z,8.85
2019-01-04T17:27:00.089Z,8.70
2019-01-04T17:29:50.687Z,8.40
2019-01-04T17:32:41.548Z,8.27
2019-01-04T17:35:32.469Z,8.12
2019-01-04T17:38:23.177Z,8.01
2019-01-04T17:41:14.275Z,7.76
2019-01-04T17:44:05.029Z,7.67
2019-01-04T17:46:55.835Z,7.61
2019-01-04T17:49:47.087Z,7.46
2019-01-04T17:52:37.842Z,7.31
2019-01-04T17:55:58.003Z,7.22
2019-01-04T17:58:48.026Z,7.14
2019-01-04T18:01:38.435Z,7.06
2019-01-04T18:04:29.076Z,6.83
2019-01-04T18:07:19.625Z,6.82
2019-01-04T18:10:10.474Z,6.69
2019-01-04T18:13:00.903Z,6.62
2019-01-04T18:15:50.740Z,6.52
2019-01-04T18:18:43.480Z,6.44
2019-01-04T18:21:33.373Z,6.29
2019-01-04T18:24:24.111Z,6.20
2019-01-04T18:27:14.697Z,6.13
2019-01-04T18:30:06.245Z,6.05
2019-01-04T18:32:56.500Z,5.95
2019-01-04T18:35:47.153Z,5.85
2019-01-04T18:38:40.105Z,5.82
2019-01-04T18:53:20.800Z,5.62
2019-01-04T18:56:11.443Z,5.48
2019-01-04T18:59:01.960Z,5.31
2019-01-04T19:01:52.391Z,5.19
2019-01-04T19:04:43.044Z,5.12
2019-01-04T19:07:33.498Z,5.26
2019-01-04T19:10:23.640Z,4.96
2019-01-04T19:13:13.507Z,4.78
2019-01-04T19:16:04.447Z,4.68
2019-01-04T19:18:55.330Z,4.70
2019-01-04T19:21:46.029Z,4.69
2019-01-04T19:24:36.435Z,4.59
2019-01-04T19:27:26.132Z,4.46
2019-01-04T19:30:17.834Z,4.41
2019-01-04T19:33:08.472Z,4.40
2019-01-04T19:36:13.462Z,4.35
2019-01-04T19:39:03.848Z,4.34
2019-01-04T19:41:54.804Z,4.31
2019-01-04T19:44:46.467Z,4.27
2019-01-04T19:47:38.493Z,4.18
2019-01-04T19:50:29.155Z,4.18
2019-01-04T19:53:19.900Z,3.85
2019-01-04T19:56:09.854Z,3.97
2019-01-04T19:59:00.809Z,3.84
2019-01-04T20:01:51.126Z,3.76
2019-01-04T20:04:41.841Z,3.69
2019-01-04T20:08:33.455Z,3.71
2019-01-04T20:12:41.047Z,3.60
2019-01-04T20:16:19.230Z,3.56
2019-01-04T20:19:27.474Z,3.45
2019-01-04T20:22:45.274Z,3.40
2019-01-04T20:25:56.596Z,3.37
2019-01-04T20:29:15.225Z,3.41
2019-01-04T20:32:40.400Z,3.41
2019-01-04T20:36:01.227Z,3.44
2019-01-04T20:39:08.730Z,3.49
2019-01-04T20:42:16.872Z,3.50
2019-01-04T20:45:32.472Z,3.27
2019-01-04T20:48:40.876Z,3.22
2019-01-04T20:51:59.373Z,3.15
2019-01-04T20:55:07.623Z,3.10
2019-01-04T20:58:14.215Z,3.06
2019-01-04T21:01:37.995Z,3.07
2019-01-04T21:04:58.890Z,2.99
2019-01-04T21:08:06.421Z,2.79
2019-01-04T21:11:25.221Z,2.72
2019-01-04T21:14:34.280Z,2.71
2019-01-04T21:17:46.821Z,2.61
2019-01-04T21:21:02.499Z,2.53
2019-01-04T21:24:09.848Z,2.43
2019-01-04T21:27:20.553Z,2.36
2019-01-04T21:30:26.882Z,2.30
2019-01-04T21:33:35.099Z,2.27
2019-01-04T21:36:47.940Z,2.25
2019-01-04T21:40:00.286Z,2.19
2019-01-04T21:43:10.866Z,2.11
2019-01-04T21:46:19.516Z,2.04
2019-01-04T21:49:27.748Z,2.13
2019-01-04T21:52:37.124Z,2.23
2019-01-04T21:55:45.491Z,2.24
2019-01-04T21:58:53.945Z,2.00
2019-01-04T22:02:02.896Z,1.95
2019-01-04T22:05:10.133Z,1.88
2019-01-04T22:08:26.887Z,1.72
2019-01-04T22:11:39.486Z,1.76
2019-01-04T22:14:52.678Z,1.66
2019-01-04T22:18:17.638Z,1.60
2019-01-04T22:21:26.301Z,1.68
2019-01-04T22:24:38.192Z,1.49
2019-01-04T22:27:56.267Z,1.35
2019-01-04T22:31:04.715Z,1.47
2019-01-04T22:34:13.562Z,1.32
2019-01-04T22:37:29.239Z,1.41
2019-01-04T22:40:37.053Z,1.35
2019-01-04T22:44:04.718Z,1.40
2019-01-04T22:47:33.146Z,1.23
2019-01-04T22:50:41.158Z,1.23
2019-01-04T22:54:00.071Z,1.17
2019-01-04T22:57:09.638Z,1.21
2019-01-04T23:00:35.757Z,1.17
2019-01-04T23:03:44.554Z,1.19
2019-01-04T23:07:09.357Z,1.23
2019-01-04T23:10:25.026Z,1.29
2019-01-04T23:13:53.155Z,1.22
2019-01-04T23:17:07.940Z,1.24
2019-01-04T23:20:27.739Z,1.21
2019-01-04T23:23:36.068Z,1.24
2019-01-04T23:27:03.603Z,1.19
2019-01-04T23:30:22.570Z,1.20
2019-01-04T23:33:42.976Z,1.04
2019-01-04T23:36:58.613Z,0.89
2019-01-04T23:40:07.520Z,0.72
2019-01-04T23:43:19.135Z,0.63
2019-01-04T23:46:28.358Z,0.61
2019-01-04T23:49:46.319Z,0.57
2019-01-04T23:52:53.981Z,0.48
2019-01-04T23:56:02.202Z,0.40
2019-01-04T23:59:30.571Z,0.46
